Time;durP1;ratioP1;P1;durP2;ratioP2;P2;SDS_P1;SDS_P2;PMS_P1;PMS_P2;Temp;Humidity;BMP_temperature;BMP_pressure;BME280_temperature;BME280_humidity;BME280_pressure;Samples;Min_cycle;Max_cycle;Signal;HPM_P1;HPM_P2
2022/05/05 00:01:22;;;;;;;13.35;8.13;;;;;;;13.84;61.82;99030.19;5022244;28;20028;-87
2022/05/05 00:03:47;;;;;;;13.90;7.68;;;;;;;13.87;61.60;99039.59;4995678;28;20402;-87
2022/05/05 00:06:12;;;;;;;9.73;6.55;;;;;;;13.84;62.06;99037.44;4983970;28;20040;-87
2022/05/05 00:08:38;;;;;;;10.65;7.28;;;;;;;13.81;61.59;99033.41;4990230;28;20060;-87
2022/05/05 00:16:39;;;;;;;9.90;6.78;;;;;;;13.82;61.53;99035.03;5009705;28;20108;-87
2022/05/05 00:19:04;;;;;;;12.15;7.68;;;;;;;13.80;61.76;99028.31;4989799;28;20092;-87
2022/05/05 00:21:30;;;;;;;11.55;7.63;;;;;;;13.80;61.82;99034.50;4971996;28;20034;-87
2022/05/05 00:23:55;;;;;;;10.57;7.22;;;;;;;13.73;61.46;99027.75;5010338;28;20505;-87
2022/05/05 00:26:20;;;;;;;11.75;6.97;;;;;;;13.75;61.38;99033.66;4993592;28;20393;-87
2022/05/05 00:28:46;;;;;;;11.15;6.82;;;;;;;13.69;61.66;99024.78;5001475;28;20032;-87
2022/05/05 00:31:11;;;;;;;14.25;8.18;;;;;;;13.72;62.01;99036.84;4998003;28;20033;-87
2022/05/05 00:33:36;;;;;;;9.93;7.38;;;;;;;13.71;61.84;99037.94;4980865;28;20487;-87
2022/05/05 00:36:02;;;;;;;11.35;7.18;;;;;;;13.67;61.94;99032.31;5010138;28;20048;-87
2022/05/05 00:38:28;;;;;;;14.95;7.22;;;;;;;13.68;62.20;99041.13;4981554;28;20069;-87
2022/05/05 00:40:53;;;;;;;13.20;8.25;;;;;;;13.53;62.16;99020.44;4993242;28;20033;-87
2022/05/05 00:43:19;;;;;;;11.43;8.07;;;;;;;13.65;61.91;99033.63;4975985;28;20499;-87
2022/05/05 00:45:44;;;;;;;13.40;8.95;;;;;;;13.52;61.74;99029.53;4990887;28;20053;-87
2022/05/05 00:48:10;;;;;;;8.60;7.45;;;;;;;13.57;61.84;99039.47;4977281;28;20133;-87
2022/05/05 00:50:36;;;;;;;10.25;6.90;;;;;;;13.61;61.68;99037.91;4990453;28;20449;-87
2022/05/05 00:53:03;;;;;;;13.02;8.30;;;;;;;13.54;61.53;99038.94;5012801;28;20540;-87
2022/05/05 00:55:32;;;;;;;8.95;7.10;;;;;;;13.53;62.00;99039.22;5012216;28;20056;-87
2022/05/05 00:57:58;;;;;;;11.20;7.55;;;;;;;13.39;61.83;99030.03;5007162;28;20037;-87
2022/05/05 01:00:24;;;;;;;11.65;8.20;;;;;;;13.41;62.03;99044.78;4984424;28;20025;-87
2022/05/05 01:02:50;;;;;;;12.50;7.32;;;;;;;13.34;61.86;99030.03;5008426;28;20022;-87
2022/05/05 01:05:16;;;;;;;7.93;6.90;;;;;;;13.37;61.46;99032.97;4976711;28;20120;-87
2022/05/05 01:07:41;;;;;;;11.05;6.70;;;;;;;13.39;61.72;99040.75;4991238;28;20072;-87
2022/05/05 01:10:07;;;;;;;9.80;6.88;;;;;;;13.31;61.57;99039.41;4972879;28;20037;-87
2022/05/05 01:12:33;;;;;;;10.68;7.30;;;;;;;13.32;61.70;99046.34;4991264;28;20465;-87
2022/05/05 01:15:00;;;;;;;14.43;8.63;;;;;;;13.22;61.97;99048.19;4978122;28;20065;-87
2022/05/05 01:17:28;;;;;;;10.50;8.18;;;;;;;13.23;62.24;99039.91;5005247;28;20068;-87
2022/05/05 01:19:53;;;;;;;14.48;8.98;;;;;;;13.09;62.06;99040.59;5009320;28;20029;-87
2022/05/05 01:22:19;;;;;;;14.23;8.10;;;;;;;13.10;61.88;99043.03;4975820;28;20033;-87
2022/05/05 01:30:12;;;;;;;13.90;8.63;;;;;;;13.13;62.10;99058.59;5015785;28;20037;-87
2022/05/05 01:32:38;;;;;;;11.75;7.43;;;;;;;12.98;62.30;99047.75;4992084;28;20037;-87
2022/05/05 01:35:04;;;;;;;11.55;8.48;;;;;;;12.92;61.87;99045.31;5007959;28;20039;-87
2022/05/05 01:37:30;;;;;;;12.38;8.57;;;;;;;12.98;61.76;99057.66;5005722;28;20048;-87
2022/05/05 01:39:56;;;;;;;11.57;8.45;;;;;;;13.21;61.18;99068.84;5009775;28;20030;-87
2022/05/05 01:42:21;;;;;;;12.60;8.57;;;;;;;13.31;61.14;99065.38;4992486;28;20029;-87
2022/05/05 01:44:47;;;;;;;16.23;9.43;;;;;;;13.21;60.95;99071.53;5027989;28;20032;-87
2022/05/05 01:47:12;;;;;;;12.25;8.38;;;;;;;13.16;61.20;99062.63;5011436;28;20045;-87
2022/05/05 01:49:37;;;;;;;13.43;8.93;;;;;;;13.17;61.28;99081.13;4992902;28;20400;-87
2022/05/05 01:52:08;;;;;;;24.35;9.55;;;;;;;13.16;61.11;99081.38;4974454;28;20493;-87
2022/05/05 01:54:34;;;;;;;10.70;8.15;;;;;;;13.05;61.14;99085.88;5004477;28;20060;-87
2022/05/05 01:56:59;;;;;;;16.80;9.77;;;;;;;12.90;61.80;99080.41;5008283;28;20060;-87
2022/05/05 01:59:24;;;;;;;13.85;9.07;;;;;;;12.92;61.85;99083.63;4993556;28;20469;-87
2022/05/05 02:01:50;;;;;;;9.80;7.35;;;;;;;12.88;61.52;99090.56;4975743;28;20468;-87
2022/05/05 02:04:15;;;;;;;15.32;8.55;;;;;;;12.80;61.64;99082.97;5027471;28;20029;-87
2022/05/05 02:06:40;;;;;;;14.55;8.82;;;;;;;12.92;61.39;99078.25;4988178;28;20041;-87
2022/05/05 02:09:06;;;;;;;13.93;8.60;;;;;;;12.88;61.75;99071.81;4992573;28;20094;-87
2022/05/05 02:11:31;;;;;;;11.88;7.63;;;;;;;12.96;60.93;99078.53;4995190;28;20449;-87
2022/05/05 02:13:56;;;;;;;11.50;8.13;;;;;;;12.90;61.32;99088.44;5008589;28;20060;-87
2022/05/05 02:16:22;;;;;;;16.10;7.70;;;;;;;12.93;60.74;99074.50;4974600;28;20137;-87
2022/05/05 02:18:48;;;;;;;9.88;7.97;;;;;;;12.95;61.21;99096.50;4975477;28;20437;-87
2022/05/05 02:21:13;;;;;;;13.73;8.23;;;;;;;12.94;61.36;99105.59;4996513;28;20044;-87
2022/05/05 02:23:39;;;;;;;11.90;8.52;;;;;;;12.96;60.85;99090.06;5007429;28;20041;-87
2022/05/05 02:26:05;;;;;;;12.82;8.32;;;;;;;13.02;60.42;99088.25;4975786;28;20056;-87
2022/05/05 02:28:31;;;;;;;13.30;7.50;;;;;;;12.88;61.06;99095.91;4990171;28;20033;-87
2022/05/05 02:30:57;;;;;;;13.73;8.00;;;;;;;12.96;60.60;99099.97;4977693;28;20025;-87
2022/05/05 02:33:22;;;;;;;9.90;7.80;;;;;;;12.89;60.92;99092.16;5006263;28;20111;-87
2022/05/05 02:38:42;;;;;;;12.07;8.35;;;;;;;13.01;60.16;99095.47;5006691;28;20047;-87
2022/05/05 02:38:47;;;;;;;10.57;7.38;;;;;;;12.98;60.61;99101.34;5006737;28;20041;-87
2022/05/05 02:41:13;;;;;;;9.75;8.10;;;;;;;12.89;60.29;99092.16;4990849;28;20040;-87
2022/05/05 02:43:38;;;;;;;11.65;7.38;;;;;;;12.79;60.92;99098.28;5011902;28;20061;-87
2022/05/05 02:46:04;;;;;;;9.13;7.85;;;;;;;12.73;60.62;99098.47;4986582;28;20130;-87
2022/05/05 02:48:29;;;;;;;9.20;7.70;;;;;;;12.62;61.13;99102.94;4990599;28;20037;-87
2022/05/05 02:50:54;;;;;;;10.88;7.80;;;;;;;12.78;60.52;99118.06;4976347;28;20033;-87
2022/05/05 02:56:04;;;;;;;12.18;7.82;;;;;;;12.77;60.60;99107.63;5012162;28;20059;-87
2022/05/05 02:58:29;;;;;;;11.70;7.82;;;;;;;12.59;61.18;99106.13;4985605;28;20038;-87
2022/05/05 03:00:55;;;;;;;11.15;7.88;;;;;;;12.68;60.88;99104.59;4984378;28;20037;-87
2022/05/05 03:03:20;;;;;;;10.23;7.22;;;;;;;12.59;60.79;99090.06;4994711;28;20385;-87
2022/05/05 03:05:46;;;;;;;10.75;7.82;;;;;;;12.62;61.27;99115.53;4970923;28;20025;-87
2022/05/05 03:08:12;;;;;;;10.63;7.53;;;;;;;12.63;60.38;99103.75;5003738;28;20029;-87
2022/05/05 03:10:38;;;;;;;11.40;8.38;;;;;;;12.47;60.74;99102.78;5009302;28;20079;-87
2022/05/05 03:13:03;;;;;;;11.57;7.22;;;;;;;12.65;60.51;99109.66;4983256;28;20083;-87
2022/05/05 03:15:29;;;;;;;8.75;7.55;;;;;;;12.59;60.54;99105.31;4974222;28;20025;-87
2022/05/05 03:17:54;;;;;;;10.77;7.38;;;;;;;12.53;60.09;99099.13;5005513;28;20093;-87
2022/05/05 03:20:19;;;;;;;14.18;8.52;;;;;;;12.39;61.03;99108.63;5008809;28;20116;-86
2022/05/05 03:22:45;;;;;;;11.38;7.30;;;;;;;12.27;60.93;99101.81;4985109;28;20030;-87
2022/05/05 03:25:10;;;;;;;10.10;7.75;;;;;;;12.39;60.39;99094.41;4980606;28;20048;-87
2022/05/05 03:27:37;;;;;;;13.60;7.90;;;;;;;12.45;60.87;99098.78;5001896;28;20037;-87
2022/05/05 03:30:03;;;;;;;8.90;7.47;;;;;;;12.29;60.51;99084.44;4991239;28;20029;-87
2022/05/05 03:32:28;;;;;;;11.25;7.65;;;;;;;12.42;60.85;99108.13;5008051;28;20496;-87
2022/05/05 03:34:54;;;;;;;12.43;7.05;;;;;;;12.41;60.29;99108.34;5004275;28;20041;-87
2022/05/05 03:37:19;;;;;;;14.88;7.47;;;;;;;12.20;60.87;99103.88;5007564;28;20116;-87
2022/05/05 03:39:45;;;;;;;11.63;7.43;;;;;;;12.29;60.67;99105.03;4984638;28;20038;-87
2022/05/05 03:42:10;;;;;;;11.13;7.82;;;;;;;12.17;60.57;99104.38;5006975;28;20037;-87
2022/05/05 03:44:36;;;;;;;13.90;7.00;;;;;;;12.15;60.77;99109.16;4974197;28;20128;-87
2022/05/05 03:47:01;;;;;;;9.98;7.13;;;;;;;12.14;61.11;99115.59;4984790;28;20022;-87
2022/05/05 03:49:27;;;;;;;10.82;8.00;;;;;;;12.05;60.91;99115.25;5003336;28;20385;-87
2022/05/05 03:51:52;;;;;;;8.60;7.32;;;;;;;12.09;61.09;99102.97;4974664;28;20708;-87
2022/05/05 03:54:17;;;;;;;12.90;7.93;;;;;;;12.08;60.85;99108.59;4990174;28;20036;-87
2022/05/05 03:56:44;;;;;;;10.85;7.90;;;;;;;12.14;60.55;99111.06;4995715;28;20077;-87
2022/05/05 03:59:09;;;;;;;10.48;7.15;;;;;;;12.12;60.93;99109.69;4994911;28;20040;-87
2022/05/05 04:01:34;;;;;;;11.75;7.05;;;;;;;12.10;60.96;99111.81;4988572;28;20478;-87
2022/05/05 04:04:00;;;;;;;9.75;6.70;;;;;;;12.13;60.83;99117.47;4994060;28;20094;-86
2022/05/05 04:06:25;;;;;;;15.60;7.45;;;;;;;12.09;60.11;99099.47;4980721;28;20025;-86
2022/05/05 04:08:50;;;;;;;11.27;7.60;;;;;;;12.28;60.19;99127.50;4988319;28;20047;-86
2022/05/05 04:11:16;;;;;;;12.15;7.93;;;;;;;12.29;60.15;99126.47;4979131;28;20057;-87
2022/05/05 04:13:41;;;;;;;9.88;7.72;;;;;;;12.18;60.64;99130.09;5026725;28;20045;-86
2022/05/05 04:16:07;;;;;;;15.00;7.65;;;;;;;12.12;60.54;99133.78;4992909;28;20026;-86
2022/05/05 04:18:33;;;;;;;12.65;7.90;;;;;;;11.86;61.27;99125.44;5005746;28;20071;-86
2022/05/05 04:20:59;;;;;;;11.10;7.95;;;;;;;11.86;61.31;99133.47;5009406;28;20390;-86
2022/05/05 04:23:24;;;;;;;13.20;8.23;;;;;;;11.76;61.97;99133.34;5030223;28;20051;-86
2022/05/05 04:25:49;;;;;;;11.18;7.90;;;;;;;11.88;61.47;99143.94;4995526;28;20034;-86
2022/05/05 04:28:15;;;;;;;13.75;8.32;;;;;;;11.89;62.03;99148.22;4992073;28;20029;-88
2022/05/05 04:30:41;;;;;;;11.80;8.30;;;;;;;11.99;61.39;99151.03;4988626;28;20767;-86
2022/05/05 04:33:08;;;;;;;12.85;9.18;;;;;;;11.89;61.49;99140.19;4996974;28;20110;-86
2022/05/05 04:35:36;;;;;;;10.38;7.57;;;;;;;11.81;61.65;99154.81;5028474;28;20025;-86
2022/05/05 04:38:03;;;;;;;12.20;8.00;;;;;;;11.59;62.39;99164.66;4988619;28;20124;-86
2022/05/05 04:40:28;;;;;;;10.00;8.02;;;;;;;11.52;63.18;99164.03;5009511;28;20064;-86
2022/05/05 04:42:54;;;;;;;11.80;8.63;;;;;;;11.53;63.29;99165.63;5016550;28;20490;-86
2022/05/05 04:45:19;;;;;;;9.07;8.10;;;;;;;11.98;61.67;99166.25;4979357;28;20551;-86
2022/05/05 04:47:44;;;;;;;15.70;9.45;;;;;;;12.21;61.41;99178.53;4989987;28;20041;-86
2022/05/05 04:50:10;;;;;;;13.85;8.65;;;;;;;12.24;61.77;99179.91;4972591;28;20520;-85
2022/05/05 04:52:35;;;;;;;14.60;8.65;;;;;;;12.20;61.61;99178.81;5010848;28;20079;-85
2022/05/05 04:55:00;;;;;;;9.52;7.75;;;;;;;12.35;61.12;99182.47;5010376;28;20397;-85
2022/05/05 04:57:26;;;;;;;13.20;8.80;;;;;;;12.37;61.38;99179.53;4998158;28;20037;-85
2022/05/05 04:59:51;;;;;;;16.23;8.68;;;;;;;12.33;61.25;99189.94;4986601;28;20104;-85
2022/05/05 05:02:16;;;;;;;12.45;9.02;;;;;;;12.39;61.76;99196.13;4992725;28;20038;-85
2022/05/05 05:04:42;;;;;;;12.40;9.27;;;;;;;12.57;61.57;99187.78;4994429;28;20620;-85
2022/05/05 05:07:07;;;;;;;13.50;8.48;;;;;;;12.60;61.58;99198.00;4998514;28;20030;-85
2022/05/05 05:09:34;;;;;;;9.75;8.48;;;;;;;12.92;60.70;99189.97;5011873;28;20021;-85
2022/05/05 05:12:00;;;;;;;10.63;8.57;;;;;;;13.06;60.29;99192.00;5014135;28;20025;-85
2022/05/05 05:14:26;;;;;;;11.43;8.80;;;;;;;13.14;60.00;99199.59;5012529;28;20018;-85
2022/05/05 05:16:51;;;;;;;10.70;9.05;;;;;;;13.12;60.08;99195.53;5011319;28;20401;-85
2022/05/05 05:19:17;;;;;;;15.70;8.50;;;;;;;13.14;60.01;99194.22;5004395;28;20025;-86
2022/05/05 05:21:42;;;;;;;15.10;9.48;;;;;;;13.18;60.25;99195.31;4994621;28;20112;-85
2022/05/05 05:24:07;;;;;;;12.45;8.52;;;;;;;13.14;60.20;99182.69;5003957;28;20028;-85
2022/05/05 05:26:33;;;;;;;12.55;8.93;;;;;;;13.20;60.50;99203.09;5011124;28;20033;-86
2022/05/05 05:28:58;;;;;;;10.43;7.72;;;;;;;13.08;61.03;99192.56;5007932;28;20037;-85
2022/05/05 05:31:23;;;;;;;16.70;9.40;;;;;;;13.08;60.82;99200.63;5004802;28;20025;-85
2022/05/05 05:33:49;;;;;;;12.52;9.70;;;;;;;13.15;60.93;99201.19;5010848;28;20033;-85
2022/05/05 05:36:14;;;;;;;14.27;10.35;;;;;;;13.02;60.72;99190.06;5013588;28;20013;-85
2022/05/05 05:38:40;;;;;;;13.32;10.35;;;;;;;13.08;61.02;99205.97;5005738;28;20642;-85
2022/05/05 05:41:05;;;;;;;17.60;9.65;;;;;;;13.06;61.38;99213.44;4997818;28;20040;-85
2022/05/05 05:43:31;;;;;;;13.95;9.05;;;;;;;13.01;61.35;99205.34;5008177;28;20128;-85
2022/05/05 05:45:56;;;;;;;13.45;9.75;;;;;;;13.00;61.57;99203.72;4981368;28;20065;-85
2022/05/05 05:48:21;;;;;;;13.18;8.85;;;;;;;12.96;61.79;99202.59;5009980;28;20033;-85
2022/05/05 05:50:46;;;;;;;12.43;9.65;;;;;;;13.01;61.25;99204.53;5000553;28;20029;-85
2022/05/05 05:53:12;;;;;;;11.48;8.50;;;;;;;13.05;61.63;99214.50;4997802;28;20060;-85
2022/05/05 05:55:37;;;;;;;12.98;9.45;;;;;;;13.02;61.54;99206.94;4996408;28;20734;-85
2022/05/05 05:58:03;;;;;;;17.52;10.50;;;;;;;13.08;61.62;99211.34;5012275;28;20037;-85
2022/05/05 06:00:30;;;;;;;16.63;10.50;;;;;;;13.13;61.10;99213.22;5013703;28;20029;-85
2022/05/05 06:05:39;;;;;;;14.95;10.32;;;;;;;13.13;61.31;99221.25;5030967;28;20036;-85
2022/05/05 06:08:04;;;;;;;15.80;9.57;;;;;;;13.07;60.79;99220.41;5030298;28;20029;-85
2022/05/05 06:10:33;;;;;;;13.38;10.15;;;;;;;13.07;61.54;99219.59;4977840;28;20040;-84
2022/05/05 06:12:59;;;;;;;14.13;9.70;;;;;;;13.11;61.10;99226.88;5012310;28;20022;-85
2022/05/05 06:15:24;;;;;;;14.55;9.52;;;;;;;13.14;61.30;99226.38;4991871;28;20030;-85
2022/05/05 06:17:50;;;;;;;18.92;10.07;;;;;;;13.22;61.08;99235.81;5030541;28;20104;-85
2022/05/05 06:20:16;;;;;;;20.70;10.13;;;;;;;13.17;60.88;99217.81;4990805;28;20036;-85
2022/05/05 06:22:41;;;;;;;8.50;7.55;;;;;;;13.29;61.02;99239.91;5008101;28;20037;-85
2022/05/05 06:25:07;;;;;;;15.70;7.97;;;;;;;13.33;61.15;99241.00;5011408;28;20053;-85
2022/05/05 06:27:33;;;;;;;13.23;8.43;;;;;;;13.41;60.82;99250.47;4989724;28;20120;-85
2022/05/05 06:30:05;;;;;;;13.30;8.45;;;;;;;13.41;60.63;99245.09;5009764;28;20071;-85
2022/05/05 06:32:30;;;;;;;13.20;7.90;;;;;;;13.35;61.05;99238.88;5009076;28;20069;-85
2022/05/05 06:34:56;;;;;;;15.65;8.80;;;;;;;13.43;60.85;99246.44;4977984;28;20061;-85
2022/05/05 06:37:22;;;;;;;14.02;8.60;;;;;;;13.52;60.76;99247.59;5009663;28;20116;-85
2022/05/05 06:39:49;;;;;;;11.80;8.35;;;;;;;13.52;60.79;99249.44;5030054;28;20034;-85
2022/05/05 06:42:14;;;;;;;9.70;8.43;;;;;;;13.58;60.24;99255.66;4996031;28;20044;-85
2022/05/05 06:44:40;;;;;;;16.48;9.60;;;;;;;13.64;60.36;99251.94;5005453;28;20041;-84
2022/05/05 06:47:05;;;;;;;14.23;8.60;;;;;;;13.67;60.27;99248.75;5009630;28;20037;-85
2022/05/05 06:49:31;;;;;;;14.32;8.85;;;;;;;13.73;60.48;99256.59;4983885;28;20033;-85
2022/05/05 06:51:57;;;;;;;12.15;8.05;;;;;;;13.76;60.14;99245.31;4992959;28;20481;-85
2022/05/05 06:54:22;;;;;;;11.10;8.32;;;;;;;13.81;60.37;99258.78;5007479;28;20477;-85
2022/05/05 06:56:49;;;;;;;11.23;8.43;;;;;;;13.78;60.75;99253.91;5023882;28;20044;-85
2022/05/05 06:59:14;;;;;;;10.57;7.72;;;;;;;13.85;60.19;99265.22;4986620;28;20112;-85
2022/05/05 07:01:56;;;;;;;17.80;8.82;;;;;;;13.92;60.49;99259.63;5007062;28;20136;-85
2022/05/05 07:07:13;;;;;;;10.15;7.65;;;;;;;14.01;59.71;99260.78;5021019;28;20072;-85
2022/05/05 07:12:24;;;;;;;10.48;8.02;;;;;;;14.10;60.36;99256.53;5010120;28;20040;-85
2022/05/05 07:14:49;;;;;;;15.15;8.05;;;;;;;14.15;60.39;99267.28;4968692;28;20041;-85
2022/05/05 07:17:15;;;;;;;13.80;8.05;;;;;;;14.20;60.17;99264.63;4994160;28;20036;-85
2022/05/05 07:19:40;;;;;;;14.63;8.55;;;;;;;14.29;60.15;99265.75;4978261;28;20033;-84
2022/05/05 07:22:06;;;;;;;15.65;9.10;;;;;;;14.31;60.41;99274.38;5000051;28;20029;-85
2022/05/05 07:24:32;;;;;;;15.52;8.55;;;;;;;14.44;59.74;99268.50;5009841;28;20021;-85
2022/05/05 07:26:58;;;;;;;9.45;8.02;;;;;;;14.41;59.69;99261.00;5003891;28;20029;-85
2022/05/05 07:29:24;;;;;;;13.88;8.10;;;;;;;14.51;59.95;99263.72;5022112;28;20029;-85
2022/05/05 07:31:49;;;;;;;15.75;8.30;;;;;;;14.56;60.14;99268.28;5001673;28;20477;-85
2022/05/05 07:34:15;;;;;;;14.02;8.10;;;;;;;14.67;60.05;99278.81;4981594;28;20466;-85
2022/05/05 07:36:41;;;;;;;12.65;8.35;;;;;;;14.73;59.78;99276.94;4990311;28;20124;-85
2022/05/05 07:39:07;;;;;;;11.82;8.68;;;;;;;14.73;59.78;99275.06;5011699;28;20036;-85
2022/05/05 07:41:32;;;;;;;13.23;7.82;;;;;;;14.83;59.91;99275.06;5006959;28;20474;-85
2022/05/05 07:43:58;;;;;;;11.15;8.57;;;;;;;14.90;59.63;99278.31;4992433;28;20034;-85
2022/05/05 07:46:24;;;;;;;15.07;8.77;;;;;;;15.00;59.89;99278.34;4992079;28;20033;-85
2022/05/05 07:48:49;;;;;;;13.73;8.27;;;;;;;14.99;60.05;99284.81;4981084;28;20025;-84
2022/05/05 07:51:15;;;;;;;13.32;8.98;;;;;;;15.08;59.56;99281.59;5010877;28;20025;-85
2022/05/05 07:53:40;;;;;;;13.70;9.25;;;;;;;15.03;59.55;99277.81;5011427;28;20025;-85
2022/05/05 07:56:05;;;;;;;11.35;8.00;;;;;;;15.12;59.26;99288.03;5009068;28;20152;-85
2022/05/05 07:58:31;;;;;;;11.70;7.50;;;;;;;15.19;59.64;99285.91;4998499;28;20030;-85
2022/05/05 08:00:56;;;;;;;20.77;8.73;;;;;;;15.27;58.96;99279.97;4991153;28;20029;-85
2022/05/05 08:03:21;;;;;;;12.73;7.35;;;;;;;15.31;59.40;99278.41;4993512;28;20041;-85
2022/05/05 08:05:47;;;;;;;16.08;8.90;;;;;;;15.36;59.03;99267.63;4992742;28;20030;-85
2022/05/05 08:08:13;;;;;;;10.98;7.72;;;;;;;15.49;58.92;99284.06;5025769;28;20509;-85
2022/05/05 08:10:38;;;;;;;9.27;7.85;;;;;;;15.54;58.98;99288.63;5002369;28;20029;-85
2022/05/05 08:13:04;;;;;;;10.52;7.53;;;;;;;15.46;58.82;99287.31;4986218;28;20622;-85
2022/05/05 08:15:30;;;;;;;9.95;7.15;;;;;;;15.55;58.47;99284.88;5026922;28;20047;-85
2022/05/05 08:17:55;;;;;;;12.63;7.55;;;;;;;15.65;58.62;99285.69;4989591;28;20080;-85
2022/05/05 08:20:20;;;;;;;13.50;7.88;;;;;;;15.75;58.19;99293.75;5005564;28;20026;-85
2022/05/05 08:22:46;;;;;;;12.38;7.88;;;;;;;15.75;58.24;99301.00;5008003;28;20044;-85
2022/05/05 08:30:39;;;;;;;9.68;7.20;;;;;;;15.91;58.01;99294.53;5010584;28;20127;-85
2022/05/05 08:33:05;;;;;;;11.50;7.20;;;;;;;15.96;57.53;99301.78;5010736;28;20064;-85
2022/05/05 08:35:30;;;;;;;14.05;8.10;;;;;;;15.98;57.49;99296.94;5010120;28;20056;-85
2022/05/05 08:37:56;;;;;;;13.73;7.05;;;;;;;16.06;57.24;99302.56;5031515;28;20489;-85
2022/05/05 08:40:26;;;;;;;14.02;7.15;;;;;;;16.20;56.97;99302.81;5005791;28;20021;-85
2022/05/05 08:42:52;;;;;;;16.23;6.82;;;;;;;16.22;57.18;99304.16;4992125;28;20033;-85
2022/05/05 08:45:17;;;;;;;14.32;7.25;;;;;;;16.35;56.58;99306.28;5008467;28;20083;-85
2022/05/05 08:47:45;;;;;;;10.88;7.53;;;;;;;16.31;56.77;99305.22;4986756;28;20061;-85
2022/05/05 08:50:11;;;;;;;16.20;7.07;;;;;;;16.39;55.95;99301.13;5027209;28;20082;-85
2022/05/05 08:52:44;;;;;;;8.10;6.47;;;;;;;16.49;56.53;99309.16;4991880;28;20087;-85
2022/05/05 08:55:14;;;;;;;11.50;6.18;;;;;;;16.44;55.95;99309.22;5008915;28;20083;-85
2022/05/05 08:57:40;;;;;;;14.38;8.05;;;;;;;16.57;55.74;99305.94;5025633;28;20029;-86
2022/05/05 09:00:06;;;;;;;12.75;6.85;;;;;;;16.62;55.83;99294.34;5013323;28;20272;-86
2022/05/05 09:02:31;;;;;;;9.63;7.13;;;;;;;16.59;55.82;99302.97;4981104;28;20038;-85
2022/05/05 09:04:56;;;;;;;11.02;6.32;;;;;;;16.64;55.48;99301.06;4983235;28;20061;-85
2022/05/05 09:07:22;;;;;;;16.05;7.35;;;;;;;16.84;55.75;99308.25;4976842;28;20497;-85
2022/05/05 09:09:50;;;;;;;10.93;6.80;;;;;;;16.78;55.46;99302.06;4995207;28;20511;-86
2022/05/05 09:12:19;;;;;;;18.63;7.70;;;;;;;16.90;55.72;99307.97;4978239;28;20112;-86
2022/05/05 09:14:45;;;;;;;10.00;6.88;;;;;;;16.95;56.04;99307.91;5011143;28;20033;-85
2022/05/05 09:17:16;;;;;;;10.65;6.85;;;;;;;17.12;55.91;99316.44;5012012;28;20167;-86
2022/05/05 09:19:45;;;;;;;12.63;7.35;;;;;;;17.12;55.56;99313.72;5011318;28;20052;-86
2022/05/05 09:22:12;;;;;;;12.77;6.28;;;;;;;17.21;55.64;99308.59;5025231;28;20030;-86
2022/05/05 09:24:40;;;;;;;8.75;6.57;;;;;;;17.22;55.27;99316.38;5011742;28;20389;-85
2022/05/05 09:27:15;;;;;;;11.50;7.40;;;;;;;17.40;55.63;99323.00;5027430;28;20026;-85
2022/05/05 09:29:41;;;;;;;9.77;7.15;;;;;;;17.48;54.83;99313.50;5009766;28;20041;-86
2022/05/05 09:32:11;;;;;;;15.50;7.68;;;;;;;17.49;55.37;99324.03;5027281;28;20041;-86
2022/05/05 09:34:37;;;;;;;9.95;6.85;;;;;;;17.53;54.63;99318.88;5012619;28;20041;-86
2022/05/05 09:37:18;;;;;;;14.70;7.22;;;;;;;17.64;54.65;99323.94;5011103;28;20026;-86
2022/05/05 09:39:44;;;;;;;16.08;7.25;;;;;;;17.76;54.61;99327.06;5009862;28;20067;-84
2022/05/05 09:42:09;;;;;;;10.02;7.18;;;;;;;17.85;54.41;99314.56;4976664;28;20050;-83
2022/05/05 09:44:43;;;;;;;9.35;6.47;;;;;;;17.91;54.51;99326.91;5006368;28;20111;-83
2022/05/05 09:47:15;;;;;;;10.07;6.20;;;;;;;18.05;53.99;99320.84;5010233;28;20037;-83
2022/05/05 09:49:56;;;;;;;13.93;6.45;;;;;;;17.97;54.37;99314.19;4987118;28;20474;-84
2022/05/05 09:57:53;;;;;;;13.18;6.45;;;;;;;18.39;52.93;99313.47;5007108;28;20056;-83
2022/05/05 10:00:37;;;;;;;11.15;6.00;;;;;;;18.53;52.42;99320.63;4989111;28;20030;-84
2022/05/05 10:05:54;;;;;;;8.35;5.65;;;;;;;18.72;52.35;99322.59;5026936;28;20041;-84
2022/05/05 10:08:23;;;;;;;7.85;5.45;;;;;;;18.70;52.28;99317.44;5008555;28;20124;-84
2022/05/05 10:10:49;;;;;;;8.88;5.90;;;;;;;18.72;52.34;99312.53;5027099;28;20493;-84
2022/05/05 10:13:20;;;;;;;12.68;7.38;;;;;;;18.85;52.19;99319.94;5012236;28;20102;-84
2022/05/05 10:15:46;;;;;;;9.05;6.40;;;;;;;18.85;52.14;99319.94;5009128;28;20301;-84
2022/05/05 10:18:12;;;;;;;9.32;6.20;;;;;;;18.80;51.88;99321.94;4988762;28;20049;-84
2022/05/05 10:20:38;;;;;;;16.17;6.22;;;;;;;18.81;51.85;99320.81;4974499;28;20050;-84
2022/05/05 10:23:20;;;;;;;12.10;6.97;;;;;;;18.79;51.73;99312.19;4994407;28;20030;-84
2022/05/05 10:25:52;;;;;;;9.68;5.88;;;;;;;18.81;51.77;99318.91;5027936;28;20148;-84
2022/05/05 10:28:40;;;;;;;8.55;5.32;;;;;;;18.85;51.83;99314.53;5026762;28;20668;-86
2022/05/05 10:31:31;;;;;;;8.05;5.65;;;;;;;18.99;51.78;99306.50;5004368;28;20113;-86
2022/05/05 10:34:07;;;;;;;9.73;5.22;;;;;;;19.11;51.51;99304.97;5026026;28;20063;-87
2022/05/05 10:36:34;;;;;;;8.90;6.05;;;;;;;19.25;51.45;99316.69;4976696;28;20029;-87
2022/05/05 10:39:16;;;;;;;7.57;5.25;;;;;;;19.27;51.75;99303.66;5007743;28;20546;-86
2022/05/05 10:41:41;;;;;;;12.00;6.38;;;;;;;19.06;50.84;99307.78;4996133;28;20175;-86
2022/05/05 10:44:15;;;;;;;11.73;5.80;;;;;;;19.11;50.33;99306.91;5024060;28;20556;-85
2022/05/05 10:46:49;;;;;;;13.90;7.20;;;;;;;19.13;50.02;99305.47;5031450;28;20037;-85
2022/05/05 10:49:33;;;;;;;9.15;5.93;;;;;;;19.13;50.13;99312.81;5021575;28;20454;-85
2022/05/05 10:52:07;;;;;;;8.57;5.25;;;;;;;19.07;50.83;99309.38;5010397;28;20481;-85
2022/05/05 10:54:33;;;;;;;8.40;5.68;;;;;;;19.03;50.49;99302.13;5000203;28;20033;-85
2022/05/05 10:57:24;;;;;;;12.43;6.45;;;;;;;19.10;50.62;99306.09;5002004;28;20378;-85
2022/05/05 11:00:09;;;;;;;10.45;5.93;;;;;;;19.14;50.48;99307.09;4995429;28;20021;-86
2022/05/05 11:02:35;;;;;;;9.60;5.18;;;;;;;19.33;49.86;99302.47;5026452;28;20032;-86
2022/05/05 11:05:30;;;;;;;13.25;5.60;;;;;;;19.65;49.44;99303.66;5027903;28;20033;-85
2022/05/05 11:08:17;;;;;;;8.32;5.07;;;;;;;19.56;49.54;99302.69;5019633;28;20022;-85
2022/05/05 11:13:41;;;;;;;12.50;5.15;;;;;;;19.60;49.47;99314.56;5021965;28;20071;-85
2022/05/05 11:22:14;;;;;;;12.40;5.45;;;;;;;19.57;48.93;99323.28;4986359;28;20099;-85
2022/05/05 11:24:44;;;;;;;9.80;5.38;;;;;;;19.57;48.72;99320.56;5007685;28;20079;-85
2022/05/05 11:27:12;;;;;;;6.55;4.68;;;;;;;19.66;48.53;99324.22;4998657;28;20035;-86
2022/05/05 11:29:37;;;;;;;9.38;4.30;;;;;;;19.67;48.54;99323.09;5022839;28;20091;-85
2022/05/05 11:32:06;;;;;;;6.80;4.50;;;;;;;19.65;48.62;99326.13;4986202;28;20033;-85
2022/05/05 11:34:33;;;;;;;5.53;4.13;;;;;;;19.62;48.69;99321.28;5026459;28;20029;-85
2022/05/05 11:37:02;;;;;;;6.82;4.47;;;;;;;19.58;48.73;99324.88;5004448;28;20587;-85
2022/05/05 11:39:28;;;;;;;6.70;4.07;;;;;;;19.54;49.18;99329.28;5003800;28;20030;-85
2022/05/05 11:42:05;;;;;;;9.63;4.82;;;;;;;19.55;49.08;99334.38;5025020;28;20017;-85
2022/05/05 11:44:33;;;;;;;6.25;4.55;;;;;;;19.50;49.74;99323.66;5022686;28;20393;-85
2022/05/05 11:47:11;;;;;;;8.60;5.05;;;;;;;19.53;48.65;99327.69;5009393;28;20028;-85
2022/05/05 11:49:37;;;;;;;10.25;4.72;;;;;;;19.47;49.04;99326.94;4999330;28;20029;-85
2022/05/05 11:52:03;;;;;;;10.90;5.75;;;;;;;19.48;48.38;99330.47;5006060;28;20489;-86
2022/05/05 11:54:32;;;;;;;10.57;4.38;;;;;;;19.47;48.54;99326.13;4993989;28;20036;-85
2022/05/05 11:56:57;;;;;;;7.15;5.13;;;;;;;19.52;48.81;99331.47;5015855;28;20026;-85
2022/05/05 12:02:17;;;;;;;8.40;4.00;;;;;;;19.61;48.36;99329.72;5022564;28;20040;-85
2022/05/05 12:04:54;;;;;;;7.60;5.10;;;;;;;19.70;48.02;99323.31;4988407;28;20116;-85
2022/05/05 12:07:22;;;;;;;8.98;4.43;;;;;;;20.14;47.96;99318.19;5000900;28;20048;-85
2022/05/05 12:09:48;;;;;;;9.27;4.40;;;;;;;20.28;48.25;99317.44;5018821;28;20060;-85
2022/05/05 12:12:17;;;;;;;6.35;4.75;;;;;;;20.28;48.18;99323.69;4998408;28;20397;-85
2022/05/05 12:14:45;;;;;;;8.85;4.18;;;;;;;20.64;47.30;99316.44;4987730;28;20038;-85